createdAt,value
2018-09-19T00:03:36.567Z,9.50
2018-09-19T00:08:29.830Z,11.00
2018-09-19T00:13:23.063Z,8.63
2018-09-19T00:18:16.301Z,12.28
2018-09-19T00:23:09.651Z,7.65
2018-09-19T00:28:02.905Z,9.88
2018-09-19T00:32:56.156Z,9.38
2018-09-19T00:37:49.377Z,11.22
2018-09-19T00:42:42.567Z,9.13
2018-09-19T00:47:35.811Z,10.68
2018-09-19T00:52:29.255Z,9.58
2018-09-19T00:57:22.492Z,12.53
2018-09-19T01:02:15.748Z,10.10
2018-09-19T01:07:09.043Z,10.05
2018-09-19T01:12:02.369Z,10.50
2018-09-19T01:16:55.698Z,9.43
2018-09-19T01:21:48.919Z,10.00
2018-09-19T01:26:42.194Z,12.47
2018-09-19T01:31:35.537Z,8.40
2018-09-19T01:36:28.770Z,10.82
2018-09-19T01:41:22.025Z,9.80
2018-09-19T01:46:15.276Z,7.62
2018-09-19T01:51:08.506Z,13.20
2018-09-19T01:56:01.805Z,16.27
2018-09-19T02:00:55.657Z,11.57
2018-09-19T02:05:48.882Z,9.33
2018-09-19T02:10:42.118Z,11.00
2018-09-19T02:15:35.422Z,11.60
2018-09-19T02:20:28.714Z,13.98
2018-09-19T02:25:21.945Z,8.75
2018-09-19T02:30:15.251Z,10.35
2018-09-19T02:35:08.495Z,9.55
2018-09-19T02:40:01.705Z,12.63
2018-09-19T02:44:55.285Z,12.05
2018-09-19T02:49:48.536Z,6.97
2018-09-19T02:54:42.311Z,10.50
2018-09-19T02:59:35.610Z,9.80
2018-09-19T03:04:28.875Z,8.55
2018-09-19T03:09:22.127Z,10.13
2018-09-19T03:14:16.936Z,9.03
2018-09-19T03:19:10.197Z,9.25
2018-09-19T03:24:03.539Z,10.35
2018-09-19T03:28:56.826Z,13.28
2018-09-19T03:33:50.047Z,13.05
2018-09-19T03:38:43.286Z,12.30
2018-09-19T03:43:36.579Z,10.53
2018-09-19T03:48:29.842Z,12.88
2018-09-19T03:53:23.157Z,19.02
2018-09-19T03:58:16.425Z,20.20
2018-09-19T04:03:09.719Z,23.05
2018-09-19T04:08:02.974Z,13.60
2018-09-19T04:12:56.321Z,17.15
2018-09-19T04:17:49.653Z,14.95
2018-09-19T04:22:42.859Z,9.38
2018-09-19T04:27:36.088Z,8.35
2018-09-19T04:32:29.406Z,16.75
2018-09-19T04:37:22.628Z,15.93
2018-09-19T04:42:15.902Z,15.65
2018-09-19T04:47:09.263Z,17.82
2018-09-19T04:52:02.690Z,16.12
2018-09-19T04:56:55.956Z,17.12
2018-09-19T05:01:49.173Z,16.87
2018-09-19T05:06:42.440Z,19.62
2018-09-19T05:11:35.984Z,16.52
2018-09-19T05:16:29.207Z,15.53
2018-09-19T05:21:22.449Z,12.33
2018-09-19T05:26:15.674Z,18.70
2018-09-19T05:31:08.929Z,16.40
2018-09-19T05:36:02.277Z,16.30
2018-09-19T05:40:55.540Z,11.63
2018-09-19T05:45:48.747Z,18.37
2018-09-19T05:50:42.010Z,15.53
2018-09-19T05:55:35.971Z,19.17
2018-09-19T06:00:29.270Z,15.25
2018-09-19T06:05:22.489Z,21.68
2018-09-19T06:10:15.722Z,16.82
2018-09-19T06:15:09.045Z,16.67
2018-09-19T06:20:02.348Z,17.85
2018-09-19T06:24:55.608Z,12.90
2018-09-19T06:29:48.830Z,10.38
2018-09-19T06:34:42.669Z,13.68
2018-09-19T06:39:35.940Z,13.08
2018-09-19T06:44:29.174Z,11.18
2018-09-19T06:49:22.405Z,12.55
2018-09-19T06:54:15.649Z,14.25
2018-09-19T06:59:08.921Z,16.50
2018-09-19T07:04:02.200Z,10.98
2018-09-19T07:08:55.430Z,13.03
2018-09-19T07:13:48.668Z,10.35
2018-09-19T07:18:41.946Z,11.35
2018-09-19T07:23:35.154Z,11.00
2018-09-19T07:28:28.454Z,12.13
2018-09-19T07:33:21.716Z,10.95
2018-09-19T07:38:14.989Z,11.03
2018-09-19T07:43:09.998Z,10.30
2018-09-19T07:48:03.378Z,13.78
2018-09-19T07:52:58.503Z,15.60
2018-09-19T07:57:51.802Z,9.63
2018-09-19T08:02:45.208Z,12.20
2018-09-19T08:07:38.520Z,11.50
2018-09-19T08:12:31.828Z,13.75
2018-09-19T08:17:25.244Z,12.20
2018-09-19T08:22:18.614Z,10.13
2018-09-19T08:27:11.886Z,14.00
2018-09-19T08:32:05.198Z,12.58
2018-09-19T08:37:02.544Z,10.03
2018-09-19T08:41:55.832Z,10.68
2018-09-19T08:46:55.950Z,11.20
2018-09-19T08:51:53.308Z,11.83
2018-09-19T08:56:51.073Z,10.13
2018-09-19T09:01:44.331Z,10.20
2018-09-19T09:06:37.558Z,8.63
2018-09-19T09:11:30.887Z,12.85
2018-09-19T09:16:24.745Z,11.48
2018-09-19T09:21:18.010Z,11.10
2018-09-19T09:26:11.282Z,8.63
2018-09-19T09:31:05.195Z,10.13
2018-09-19T09:35:58.488Z,9.23
2018-09-19T09:40:51.794Z,11.08
2018-09-19T09:45:45.174Z,7.78
2018-09-19T09:50:38.519Z,9.85
2018-09-19T09:55:31.773Z,8.38
2018-09-19T10:00:30.686Z,5.40
2018-09-19T10:05:24.013Z,12.15
2018-09-19T10:10:17.336Z,5.33
2018-09-19T10:15:10.618Z,6.80
2018-09-19T10:20:03.955Z,7.40
2018-09-19T10:24:57.220Z,6.35
2018-09-19T10:29:50.651Z,4.60
2018-09-19T10:34:43.916Z,7.80
2018-09-19T10:39:37.140Z,6.47
2018-09-19T10:44:30.652Z,5.92
2018-09-19T10:49:23.956Z,7.22
2018-09-19T10:54:17.317Z,5.28
2018-09-19T10:59:10.551Z,5.33
2018-09-19T11:04:03.785Z,6.62
2018-09-19T11:08:57.023Z,4.30
2018-09-19T11:13:51.895Z,7.00
2018-09-19T11:18:46.897Z,7.70
2018-09-19T11:23:42.115Z,9.03
2018-09-19T11:28:36.074Z,6.60
2018-09-19T11:33:29.984Z,7.58
2018-09-19T11:38:24.239Z,6.50
2018-09-19T11:43:17.654Z,8.38
2018-09-19T11:48:10.872Z,5.67
2018-09-19T11:53:08.344Z,5.53
2018-09-19T11:58:01.598Z,5.92
2018-09-19T12:02:55.360Z,6.72
2018-09-19T12:07:49.255Z,6.53
2018-09-19T12:12:42.462Z,6.03
2018-09-19T12:17:35.779Z,4.90
2018-09-19T12:22:28.997Z,6.83
2018-09-19T12:27:22.275Z,8.18
2018-09-19T12:32:15.861Z,4.83
2018-09-19T12:37:09.181Z,4.87
2018-09-19T12:42:02.460Z,6.65
2018-09-19T12:46:55.767Z,7.08
2018-09-19T12:51:49.913Z,8.38
2018-09-19T12:56:43.203Z,7.83
2018-09-19T13:01:36.465Z,5.60
2018-09-19T13:06:29.723Z,5.83
2018-09-19T13:11:22.946Z,5.60
2018-09-19T13:16:16.223Z,5.00
2018-09-19T13:21:09.814Z,7.55
2018-09-19T13:26:03.080Z,6.62
2018-09-19T13:30:56.355Z,6.72
2018-09-19T13:35:49.626Z,9.90
2018-09-19T13:40:42.895Z,4.40
2018-09-19T13:45:36.172Z,5.05
2018-09-19T13:51:33.813Z,5.95
2018-09-19T13:56:27.070Z,7.22
2018-09-19T14:01:20.302Z,6.10
2018-09-19T14:06:14.198Z,9.55
2018-09-19T14:11:07.484Z,6.90
2018-09-19T14:16:00.793Z,6.12
2018-09-19T14:20:54.217Z,9.08
2018-09-19T14:25:48.096Z,6.78
2018-09-19T14:30:41.433Z,9.60
2018-09-19T14:35:34.732Z,4.58
2018-09-19T14:40:28.943Z,6.47
2018-09-19T14:45:22.372Z,6.42
2018-09-19T14:50:15.672Z,5.30
2018-09-19T14:55:09.856Z,5.60
2018-09-19T15:00:03.219Z,4.80
2018-09-19T15:04:56.473Z,8.58
2018-09-19T15:09:50.052Z,8.20
2018-09-19T15:14:43.331Z,5.30
2018-09-19T15:19:36.606Z,6.58
2018-09-19T15:24:29.886Z,6.30
2018-09-19T15:29:23.129Z,5.60
2018-09-19T15:34:16.402Z,6.55
2018-09-19T15:39:10.099Z,12.58
2018-09-19T15:44:03.393Z,4.30
2018-09-19T15:48:56.676Z,6.40
2018-09-19T15:53:49.957Z,4.95
2018-09-19T15:58:44.604Z,5.30
2018-09-19T16:03:38.164Z,7.95
2018-09-19T16:08:31.733Z,4.97
2018-09-19T16:13:24.974Z,4.72
2018-09-19T16:18:18.210Z,6.22
2018-09-19T16:23:11.580Z,7.50
2018-09-19T16:28:04.939Z,7.20
2018-09-19T16:32:58.890Z,5.40
2018-09-19T16:37:52.181Z,7.10
2018-09-19T16:42:46.372Z,10.63
2018-09-19T16:47:39.693Z,6.28
2018-09-19T16:52:33.027Z,5.17
2018-09-19T16:57:26.267Z,7.92
2018-09-19T17:02:19.515Z,7.72
2018-09-19T17:07:12.781Z,7.28
2018-09-19T17:12:06.071Z,7.50
2018-09-19T17:16:59.372Z,4.53
2018-09-19T17:21:52.733Z,5.15
2018-09-19T17:26:46.033Z,7.10
2018-09-19T17:31:39.385Z,8.13
2018-09-19T17:36:32.793Z,7.80
2018-09-19T17:41:26.159Z,7.05
2018-09-19T17:46:19.454Z,8.10
2018-09-19T17:51:12.821Z,7.28
2018-09-19T17:56:06.297Z,7.03
2018-09-19T18:00:59.567Z,8.60
2018-09-19T18:05:52.876Z,5.35
2018-09-19T18:10:46.143Z,8.93
2018-09-19T18:15:40.132Z,8.43
2018-09-19T18:20:33.459Z,6.40
2018-09-19T18:25:26.665Z,9.15
2018-09-19T18:30:19.982Z,10.48
2018-09-19T18:35:13.254Z,7.72
2018-09-19T18:40:06.503Z,6.20
2018-09-19T18:44:59.776Z,6.05
2018-09-19T18:49:53.126Z,9.98
2018-09-19T18:54:46.341Z,11.15
2018-09-19T18:59:40.225Z,7.25
2018-09-19T19:04:33.464Z,6.78
2018-09-19T19:09:26.749Z,9.73
2018-09-19T19:14:20.013Z,9.40
2018-09-19T19:19:14.152Z,9.50
2018-09-19T19:24:07.542Z,6.22
2018-09-19T19:29:00.814Z,7.55
2018-09-19T19:33:54.083Z,9.18
2018-09-19T19:38:47.451Z,8.18
2018-09-19T19:43:40.741Z,10.75
2018-09-19T19:48:33.985Z,9.60
2018-09-19T19:53:27.256Z,13.00
2018-09-19T19:58:20.539Z,13.43
2018-09-19T20:03:13.846Z,9.53
2018-09-19T20:08:07.150Z,8.90
2018-09-19T20:13:00.470Z,6.40
2018-09-19T20:17:53.780Z,11.38
2018-09-19T20:22:47.081Z,10.03
2018-09-19T20:27:47.218Z,9.58
2018-09-19T20:32:40.504Z,8.75
2018-09-19T20:37:33.850Z,10.95
2018-09-19T20:42:27.124Z,8.00
2018-09-19T20:47:20.439Z,7.65
2018-09-19T20:52:13.878Z,18.07
2018-09-19T20:57:07.195Z,9.93
2018-09-19T21:02:00.519Z,13.72
2018-09-19T21:06:54.010Z,14.20
2018-09-19T21:11:47.339Z,8.60
2018-09-19T21:16:41.074Z,14.77
2018-09-19T21:21:34.398Z,10.63
2018-09-19T21:26:27.703Z,8.23
2018-09-19T21:31:21.036Z,11.05
2018-09-19T21:36:14.255Z,13.70
2018-09-19T21:41:07.555Z,6.72
2018-09-19T21:46:00.826Z,8.48
2018-09-19T21:50:54.069Z,13.68
2018-09-19T21:55:49.205Z,8.03
2018-09-19T22:00:42.663Z,10.63
2018-09-19T22:05:35.889Z,10.78
2018-09-19T22:10:30.018Z,9.75
2018-09-19T22:15:23.295Z,8.85
2018-09-19T22:20:16.587Z,11.90
2018-09-19T22:25:10.635Z,13.25
2018-09-19T22:30:04.087Z,12.63
2018-09-19T22:34:57.422Z,8.80
2018-09-19T22:39:50.665Z,12.37
2018-09-19T22:44:43.917Z,11.28
2018-09-19T22:49:37.161Z,12.53
2018-09-19T22:54:46.799Z,12.73
2018-09-19T22:59:40.081Z,11.90
2018-09-19T23:04:33.397Z,15.98
2018-09-19T23:09:26.702Z,14.63
2018-09-19T23:14:19.987Z,9.88
2018-09-19T23:19:13.241Z,11.57
2018-09-19T23:24:06.544Z,14.60
2018-09-19T23:28:59.813Z,11.85
2018-09-19T23:33:53.069Z,14.07
2018-09-19T23:38:46.374Z,11.88
2018-09-19T23:43:39.592Z,10.18
2018-09-19T23:48:32.904Z,17.87
2018-09-19T23:53:26.187Z,14.13
2018-09-19T23:58:20.804Z,18.92
